ADDS METAR Data INFO
IDs: Format: Raw Decoded Include TAF

Data at: 0848 UTC 27 Jun 2017

KPKV 270835Z AUTO 00000KT 10SM -RA CLR 24/24 A2997 RMK AO2 T02430243
KPKV 270815Z AUTO 00000KT 10SM SCT018 SCT024 SCT032 25/24 A2998 RMK AO2 T02450243
KPKV 270755Z AUTO 00000KT 10SM SCT022 SCT029 SCT120 25/24 A2998 RMK AO2 T02470243
KPKV 270735Z AUTO 00000KT 10SM SCT120 25/24 A2998 RMK AO2 T02480243
KPKV 270715Z AUTO 00000KT 10SM -DZ CLR 25/24 A2999 RMK AO2 T02480242
KPKV 270655Z AUTO 00000KT 10SM -RA SCT120 25/24 A2999 RMK AO2 T02480241
KPKV 270635Z AUTO 00000KT 10SM SCT120 25/24 A2999 RMK AO2 T02490239
KPKV 270615Z AUTO 00000KT 10SM CLR 25/24 A2999 RMK AO2 T02450240
KPKV 270555Z AUTO 00000KT 10SM CLR 25/24 A3000 RMK AO2 60006 T02450240 10256 20228 402970225
KPKV 270540Z AUTO 00000KT 10SM CLR 24/24 A3000 RMK AO2 T02430240
KPKV 270518Z AUTO 00000KT 10SM CLR 24/24 A2999 RMK AO2
KPKV 270435Z AUTO 00000KT 10SM CLR 24/24 A3000 RMK AO2 P0001 T02420241
KPKV 270415Z AUTO 00000KT 10SM CLR 24/24 A3000 RMK AO2 T02360235
KPKV 270350Z AUTO 00000KT 10SM SCT060 SCT100 SCT120 23/23 A3000 RMK AO2 P0001 T02330230
KPKV 270335Z AUTO 00000KT 7SM -DZ SCT015 SCT032 BKN090 23/23 A3000 RMK AO2 P0001 T02290225
KPKV 270320Z AUTO 14009G16KT 5SM RA SCT015 BKN028 OVC080 24/23 A3000 RMK AO2 P0001 T02350233
KPKV 270255Z AUTO 00000KT 10SM SCT029 SCT037 25/25 A3000 RMK AO2 60004 T02500250
KPKV 270215Z AUTO 00000KT 10SM SCT014 BKN019 OVC100 25/25 A3000 RMK AO2 T02530253
KPKV 270155Z AUTO 00000KT 10SM -RA SCT041 SCT049 BKN100 26/26 A2999 RMK AO2 T02550255
KPKV 270135Z AUTO 00000KT 10SM SCT026 SCT041 BKN100 26/26 A2999 RMK AO2 T02550255
KPKV 270115Z AUTO 00000KT 10SM SCT026 OVC100 26/25 A3000 RMK AO2 T02550253
KPKV 270055Z AUTO 00000KT 10SM SCT027 BKN110 25/25 A2999 RMK AO2 P0004 T02530251
KPKV 270030Z AUTO 00000KT 7SM -RA SCT028 SCT045 OVC095 25/25 A2999 RMK AO2 P0003 T02540252
KPKV 270015Z AUTO 00000KT 5SM -RA SCT036 BKN070 OVC085 25/25 A2998 RMK AO2 P0002 T02520250
KPKV 262335Z AUTO 00000KT 10SM -RA SCT018 BKN024 OVC085 25/25 A2999 RMK AO2 T02500248
KPKV 262315Z AUTO 00000KT 10SM -RA SCT007 BKN020 OVC090 25/25 A3000 RMK AO2 T02490249
KPKV 262255Z AUTO 00000KT 5SM RA SCT007 SCT014 BKN024 25/25 A2999 RMK AO2 P0005 T02500247
KPKV 262240Z AUTO 03005KT 5SM -RA BKN024 OVC031 25/25 A2999 RMK AO2 P0003 T02530250
KPKV 262215Z AUTO 00000KT 10SM BKN025 BKN045 OVC065 26/25 A2999 RMK AO2 T02630247
KPKV 262155Z AUTO 00000KT 10SM SCT045 SCT065 BKN090 28/25 A2999 RMK AO2 T02840251
KPKV 262135Z AUTO 11011KT 10SM SCT090 29/25 A2999 RMK AO2 T02910253
KPKV 262115Z AUTO 00000KT 10SM SCT023 SCT033 SCT090 29/26 A3000 RMK AO2 T02920259
KPKV 262050Z AUTO 00000KT 10SM SCT023 29/25 A3000 RMK AO2 60011 T02860253
KPKV 262037Z AUTO 00000KT 10SM SCT023 SCT030 SCT060 28/26 A3000 RMK AO2
KPKV 262017Z AUTO 00000KT 7SM RA SCT021 BKN030 OVC060 28/26 A3001 RMK AO2
KPKV 261957Z AUTO 00000KT 10SM SCT019 SCT024 29/26 A3002 RMK AO2
KPKV 261858Z AUTO 00000KT 10SM SCT040 SCT048 BKN110 28/26 A3004 RMK AO2 P0011
KPKV 261837Z AUTO 00000KT 7SM -DZ SCT020 BKN035 BKN043 26/25 A3005 RMK AO2 P0011
KPKV 261817Z AUTO 00000KT 4SM RA SCT004 BKN021 OVC034 24/24 A3006 RMK AO2 P0009
KPKV 261757Z AUTO 00000KT 1SM +RA BKN004 OVC021 24/23 A3006 RMK AO2 P0034
KPKV 261730Z AUTO 00000KT 10SM SCT033 SCT050 BKN075 27/24 A3007 RMK AO2 T02660242
KPKV 261717Z AUTO 00000KT 10SM SCT023 SCT033 BKN048 27/24 A3007 RMK AO2
KPKV 261655Z AUTO 00000KT 10SM SCT020 BKN025 BKN038 28/24 A3007 RMK AO2 T02760243
KPKV 261635Z AUTO 00000KT 10SM SCT026 SCT038 SCT050 28/25 A3008 RMK AO2 T02820246
KPKV 261620Z AUTO 00000KT 10SM SCT028 SCT036 30/24 A3008 RMK AO2 T02950244
KPKV 261555Z AUTO 00000KT 10SM SCT019 SCT027 SCT050 29/25 A3008 RMK AO2 T02870250
KPKV 261535Z AUTO 00000KT 10SM SCT017 29/26 A3008 RMK AO2 T02900255
KPKV 261516Z AUTO 00000KT 10SM CLR 28/26 A3008 RMK AO2
KPKV 261457Z AUTO 00000KT 10SM SCT011 SCT080 SCT100 27/26 A3008 RMK AO2
KPKV 261417Z AUTO 04005KT 10SM SCT007 27/25 A3009 RMK AO2
KPKV 261337Z AUTO 00000KT 10SM CLR 26/25 A3008 RMK AO2
KPKV 261317Z AUTO 00000KT 10SM CLR 26/25 A3008 RMK AO2
KPKV 261237Z AUTO 00000KT 10SM CLR 24/24 A3007 RMK AO2
KPKV 261217Z AUTO 00000KT 10SM CLR 24/24 A3007 RMK AO2
KPKV 261200Z AUTO 00000KT 10SM CLR 23/23 A3007 RMK AO2 T02300230
KPKV 261135Z AUTO 00000KT 10SM SCT020 SCT060 23/23 A3007 RMK AO2 T02270227
KPKV 261057Z AUTO 00000KT 10SM DZ SCT036 SCT044 SCT050 23/23 A3006 RMK AO2 P0088
KPKV 260935Z AUTO 00000KT 10SM BKN019 BKN024 OVC028 25/25 A3006 RMK AO2 T02460245
KPKV 260915Z AUTO 00000KT 10SM BKN021 25/25 A3006 RMK AO2 T02500248
KPKV 260855Z AUTO 00000KT 10SM CLR 25/25 A3006 RMK AO2 T02510247
KPKV 260838Z AUTO 00000KT 10SM CLR 26/25 A3007 RMK AO2
KPKV 260817Z AUTO 00000KT 10SM DZ SCT120 26/25 A3006 RMK AO2
KPKV 260755Z AUTO 00000KT 10SM SCT020 SCT035 BKN110 26/25 A3006 RMK AO2 T02560246
KPKV 260715Z AUTO 00000KT 10SM SCT020 SCT025 SCT034 26/25 A3006 RMK AO2 T02570245
KPKV 260655Z AUTO 00000KT 10SM SCT022 SCT026 BKN034 26/25 A3007 RMK AO2 T02550246
KPKV 260636Z AUTO 00000KT 10SM SCT022 26/24 A3007 RMK AO2
KPKV 260617Z AUTO 00000KT 10SM SCT022 SCT030 SCT036 26/24 A3007 RMK AO2
KPKV 260550Z AUTO 00000KT 10SM SCT024 SCT029 SCT040 26/25 A3008 RMK AO2 T02550248 10272 20252 403160224
KPKV 260535Z AUTO 00000KT 10SM SCT022 SCT031 SCT038 26/25 A3009 RMK AO2 T02550247
KPKV 260518Z AUTO 00000KT 10SM SCT020 SCT028 SCT049 26/24 A3009 RMK AO2
KPKV 260455Z AUTO 00000KT 10SM SCT022 SCT028 25/25 A3009 RMK AO2 T02530245
KPKV 260438Z AUTO 00000KT 10SM SCT024 BKN030 26/24 A3009 RMK AO2
KPKV 260416Z AUTO 00000KT 10SM SCT024 SCT029 26/24 A3009 RMK AO2
KPKV 260358Z AUTO 00000KT 10SM SCT024 SCT031 26/24 A3009 RMK AO2
KPKV 260337Z AUTO 00000KT 10SM SCT024 26/24 A3008 RMK AO2
KPKV 260316Z AUTO 00000KT 10SM CLR 26/24 A3008 RMK AO2
KPKV 260258Z AUTO 00000KT 10SM CLR 26/24 A3007 RMK AO2
KPKV 260237Z AUTO 00000KT 10SM CLR 26/24 A3007 RMK AO2
KPKV 260216Z AUTO 00000KT 10SM CLR 26/24 A3007 RMK AO2
KPKV 260158Z AUTO 00000KT 10SM SCT021 26/24 A3006 RMK AO2
KPKV 260138Z AUTO 00000KT 10SM SCT023 SCT034 27/24 A3007 RMK AO2
KPKV 260118Z AUTO 00000KT 10SM SCT023 SCT034 27/25 A3006 RMK AO2
KPKV 260058Z AUTO 00000KT 10SM SCT021 27/25 A3006 RMK AO2
KPKV 260015Z AUTO 00000KT 10SM -RA SCT035 SCT043 SCT049 27/25 A3007 RMK AO2 T02700251
KPKV 252357Z AUTO 00000KT 10SM -RA SCT041 BKN048 BKN060 27/25 A3007 RMK AO2
KPKV 252335Z AUTO 00000KT 10SM SCT060 28/25 A3007 RMK AO2 T02750250
KPKV 252315Z AUTO 14003KT 10SM CLR 28/25 A3006 RMK AO2 T02780245
KPKV 252255Z AUTO 13004KT 10SM CLR 28/25 A3006 RMK AO2 T02800245
KPKV 252240Z AUTO 00000KT 10SM CLR 28/25 A3006 RMK AO2 T02810247
KPKV 252215Z AUTO 12010KT 10SM CLR 29/25 A3006 RMK AO2 T02870245
KPKV 252200Z AUTO 12010G14KT 10SM CLR 29/25 A3007 RMK AO2 T02900248
KPKV 252135Z AUTO 12013KT 10SM CLR 30/24 A3006 RMK AO2 T02980242
KPKV 252115Z AUTO 11014G18KT 10SM CLR 31/25 A3006 RMK AO2 T03100246
KPKV 252055Z AUTO 11013KT 10SM CLR 31/25 A3006 RMK AO2 T03070247


Page loaded:  08:48 UTC  |   01:48 AM Pacific  |   02:48 AM Mountain  |   03:48 AM Central  |   04:48 AM Eastern

 

ADVISORIES

FORECASTS

FORECASTS

OBSERVATIONS

USER TOOLS

ABOUT US